sensor_id;sensor_type;location;lat;lon;timestamp;temperature;humidity
15133;DHT22;7667;51.232;17.110;2022-11-18T00:01:18;1.10;99.90
15133;DHT22;7667;51.232;17.110;2022-11-18T00:03:47;1.10;99.90
15133;DHT22;7667;51.232;17.110;2022-11-18T00:06:18;1.20;99.90
15133;DHT22;7667;51.232;17.110;2022-11-18T00:08:47;1.10;99.90
15133;DHT22;7667;51.232;17.110;2022-11-18T00:11:17;1.00;99.90
15133;DHT22;7667;51.232;17.110;2022-11-18T00:14:09;1.00;99.90
15133;DHT22;7667;51.232;17.110;2022-11-18T00:19:26;1.20;99.90
15133;DHT22;7667;51.232;17.110;2022-11-18T00:21:55;1.20;99.90
15133;DHT22;7667;51.232;17.110;2022-11-18T00:24:22;1.20;99.90
15133;DHT22;7667;51.232;17.110;2022-11-18T00:26:50;1.10;99.90
15133;DHT22;7667;51.232;17.110;2022-11-18T00:29:19;1.10;99.90
15133;DHT22;7667;51.232;17.110;2022-11-18T00:31:47;1.00;99.90
15133;DHT22;7667;51.232;17.110;2022-11-18T00:34:16;0.90;99.90
15133;DHT22;7667;51.232;17.110;2022-11-18T00:36:45;0.90;99.90
15133;DHT22;7667;51.232;17.110;2022-11-18T00:39:16;0.80;99.90
15133;DHT22;7667;51.232;17.110;2022-11-18T00:41:45;0.80;99.90
15133;DHT22;7667;51.232;17.110;2022-11-18T00:44:31;0.80;99.90
15133;DHT22;7667;51.232;17.110;2022-11-18T00:46:59;0.80;99.90
15133;DHT22;7667;51.232;17.110;2022-11-18T00:49:27;0.80;99.90
15133;DHT22;7667;51.232;17.110;2022-11-18T00:51:54;0.80;99.90
15133;DHT22;7667;51.232;17.110;2022-11-18T00:54:22;0.90;99.90
15133;DHT22;7667;51.232;17.110;2022-11-18T00:56:49;0.90;99.90
15133;DHT22;7667;51.232;17.110;2022-11-18T00:59:17;0.90;99.90
15133;DHT22;7667;51.232;17.110;2022-11-18T01:01:45;0.90;99.90
15133;DHT22;7667;51.232;17.110;2022-11-18T01:04:12;0.80;99.90
15133;DHT22;7667;51.232;17.110;2022-11-18T01:06:40;0.80;99.90
15133;DHT22;7667;51.232;17.110;2022-11-18T01:09:07;0.80;99.90
15133;DHT22;7667;51.232;17.110;2022-11-18T01:11:35;0.80;99.90
15133;DHT22;7667;51.232;17.110;2022-11-18T01:14:23;0.90;99.90
15133;DHT22;7667;51.232;17.110;2022-11-18T01:16:55;0.90;99.90
15133;DHT22;7667;51.232;17.110;2022-11-18T01:19:23;1.00;99.90
15133;DHT22;7667;51.232;17.110;2022-11-18T01:21:51;1.00;99.90
15133;DHT22;7667;51.232;17.110;2022-11-18T01:24:19;1.10;99.90
15133;DHT22;7667;51.232;17.110;2022-11-18T01:26:46;1.10;99.90
15133;DHT22;7667;51.232;17.110;2022-11-18T01:29:14;1.10;99.90
15133;DHT22;7667;51.232;17.110;2022-11-18T01:31:42;1.10;99.90
15133;DHT22;7667;51.232;17.110;2022-11-18T01:34:29;1.10;99.90
15133;DHT22;7667;51.232;17.110;2022-11-18T01:36:57;1.00;99.90
15133;DHT22;7667;51.232;17.110;2022-11-18T01:39:24;0.90;99.90
15133;DHT22;7667;51.232;17.110;2022-11-18T01:41:52;0.70;99.90
15133;DHT22;7667;51.232;17.110;2022-11-18T01:44:58;0.70;99.90
15133;DHT22;7667;51.232;17.110;2022-11-18T01:47:36;0.70;99.90
15133;DHT22;7667;51.232;17.110;2022-11-18T01:50:08;0.60;99.90
15133;DHT22;7667;51.232;17.110;2022-11-18T01:52:36;0.60;99.90
15133;DHT22;7667;51.232;17.110;2022-11-18T01:55:10;0.60;99.90
15133;DHT22;7667;51.232;17.110;2022-11-18T01:57:40;0.60;99.90
15133;DHT22;7667;51.232;17.110;2022-11-18T02:00:09;0.60;99.90
15133;DHT22;7667;51.232;17.110;2022-11-18T02:02:37;0.50;99.90
15133;DHT22;7667;51.232;17.110;2022-11-18T02:05:07;0.50;99.90
15133;DHT22;7667;51.232;17.110;2022-11-18T02:07:39;0.50;99.90
15133;DHT22;7667;51.232;17.110;2022-11-18T02:10:17;0.60;99.90
15133;DHT22;7667;51.232;17.110;2022-11-18T02:12:49;0.60;99.90
15133;DHT22;7667;51.232;17.110;2022-11-18T02:15:36;0.70;99.90
15133;DHT22;7667;51.232;17.110;2022-11-18T02:18:34;0.80;99.90
15133;DHT22;7667;51.232;17.110;2022-11-18T02:21:54;0.80;99.90
15133;DHT22;7667;51.232;17.110;2022-11-18T02:29:59;0.90;99.90
15133;DHT22;7667;51.232;17.110;2022-11-18T02:32:40;1.00;99.90
15133;DHT22;7667;51.232;17.110;2022-11-18T02:37:56;0.90;99.90
15133;DHT22;7667;51.232;17.110;2022-11-18T02:40:54;0.90;99.90
15133;DHT22;7667;51.232;17.110;2022-11-18T02:43:34;0.90;99.90
15133;DHT22;7667;51.232;17.110;2022-11-18T02:46:14;0.80;99.90
15133;DHT22;7667;51.232;17.110;2022-11-18T02:48:47;0.70;99.90
15133;DHT22;7667;51.232;17.110;2022-11-18T02:51:20;0.70;99.90
15133;DHT22;7667;51.232;17.110;2022-11-18T02:53:50;0.60;99.90
15133;DHT22;7667;51.232;17.110;2022-11-18T02:56:21;0.70;99.90
15133;DHT22;7667;51.232;17.110;2022-11-18T02:58:50;0.70;99.90
15133;DHT22;7667;51.232;17.110;2022-11-18T03:01:21;0.60;99.90
15133;DHT22;7667;51.232;17.110;2022-11-18T03:03:55;0.70;99.90
15133;DHT22;7667;51.232;17.110;2022-11-18T03:06:36;0.60;99.90
15133;DHT22;7667;51.232;17.110;2022-11-18T03:09:19;0.60;99.90
15133;DHT22;7667;51.232;17.110;2022-11-18T03:12:17;0.70;99.90
15133;DHT22;7667;51.232;17.110;2022-11-18T03:15:17;0.60;99.90
15133;DHT22;7667;51.232;17.110;2022-11-18T03:23:37;0.50;99.90
15133;DHT22;7667;51.232;17.110;2022-11-18T03:26:11;0.50;99.90
15133;DHT22;7667;51.232;17.110;2022-11-18T03:28:48;0.50;99.90
15133;DHT22;7667;51.232;17.110;2022-11-18T03:31:35;0.40;99.90
15133;DHT22;7667;51.232;17.110;2022-11-18T03:37:06;0.40;99.90
15133;DHT22;7667;51.232;17.110;2022-11-18T03:39:40;0.40;99.90
15133;DHT22;7667;51.232;17.110;2022-11-18T03:42:40;0.40;99.90
15133;DHT22;7667;51.232;17.110;2022-11-18T03:45:24;0.40;99.90
15133;DHT22;7667;51.232;17.110;2022-11-18T03:48:06;0.40;99.90
15133;DHT22;7667;51.232;17.110;2022-11-18T03:50:46;0.40;99.90
15133;DHT22;7667;51.232;17.110;2022-11-18T03:53:19;0.30;99.90
15133;DHT22;7667;51.232;17.110;2022-11-18T03:55:51;0.20;99.90
15133;DHT22;7667;51.232;17.110;2022-11-18T03:58:39;0.20;99.90
15133;DHT22;7667;51.232;17.110;2022-11-18T04:01:20;0.30;99.90
15133;DHT22;7667;51.232;17.110;2022-11-18T04:03:52;0.20;99.90
15133;DHT22;7667;51.232;17.110;2022-11-18T04:06:33;0.20;99.90
15133;DHT22;7667;51.232;17.110;2022-11-18T04:09:26;0.20;99.90
15133;DHT22;7667;51.232;17.110;2022-11-18T04:12:03;0.20;99.90
15133;DHT22;7667;51.232;17.110;2022-11-18T04:14:39;0.10;99.90
15133;DHT22;7667;51.232;17.110;2022-11-18T04:17:16;0.10;99.90
15133;DHT22;7667;51.232;17.110;2022-11-18T04:19:46;0.10;99.90
15133;DHT22;7667;51.232;17.110;2022-11-18T04:22:14;0.10;99.90
15133;DHT22;7667;51.232;17.110;2022-11-18T04:24:42;0.10;99.90
15133;DHT22;7667;51.232;17.110;2022-11-18T04:27:10;0.10;99.90
15133;DHT22;7667;51.232;17.110;2022-11-18T04:29:37;0.00;99.90
15133;DHT22;7667;51.232;17.110;2022-11-18T04:32:05;0.00;99.90
15133;DHT22;7667;51.232;17.110;2022-11-18T04:34:33;0.10;99.90
15133;DHT22;7667;51.232;17.110;2022-11-18T04:37:00;0.10;99.90
15133;DHT22;7667;51.232;17.110;2022-11-18T04:39:28;0.10;99.90
15133;DHT22;7667;51.232;17.110;2022-11-18T04:41:55;0.00;99.90
15133;DHT22;7667;51.232;17.110;2022-11-18T04:44:31;0.00;99.90
15133;DHT22;7667;51.232;17.110;2022-11-18T04:47:02;-0.10;99.90
15133;DHT22;7667;51.232;17.110;2022-11-18T04:49:31;-0.10;99.90
15133;DHT22;7667;51.232;17.110;2022-11-18T04:52:00;-0.10;99.90
15133;DHT22;7667;51.232;17.110;2022-11-18T04:54:28;-0.10;99.90
15133;DHT22;7667;51.232;17.110;2022-11-18T04:56:56;-0.10;99.90
15133;DHT22;7667;51.232;17.110;2022-11-18T04:59:26;-0.10;99.90
15133;DHT22;7667;51.232;17.110;2022-11-18T05:01:55;-0.20;99.90
15133;DHT22;7667;51.232;17.110;2022-11-18T05:04:25;-0.30;99.90
15133;DHT22;7667;51.232;17.110;2022-11-18T05:06:54;-0.30;99.90
15133;DHT22;7667;51.232;17.110;2022-11-18T05:09:22;-0.30;99.90
15133;DHT22;7667;51.232;17.110;2022-11-18T05:11:57;-0.30;99.90
15133;DHT22;7667;51.232;17.110;2022-11-18T05:14:43;-0.30;99.90
15133;DHT22;7667;51.232;17.110;2022-11-18T05:17:16;-0.30;99.90
15133;DHT22;7667;51.232;17.110;2022-11-18T05:19:44;-0.40;99.90
15133;DHT22;7667;51.232;17.110;2022-11-18T05:22:11;-0.40;99.90
15133;DHT22;7667;51.232;17.110;2022-11-18T05:24:40;-0.40;99.90
15133;DHT22;7667;51.232;17.110;2022-11-18T05:27:08;-0.40;99.90
15133;DHT22;7667;51.232;17.110;2022-11-18T05:29:35;-0.50;99.90
15133;DHT22;7667;51.232;17.110;2022-11-18T05:32:03;-0.50;99.90
15133;DHT22;7667;51.232;17.110;2022-11-18T05:34:31;-0.40;99.90
15133;DHT22;7667;51.232;17.110;2022-11-18T05:36:58;-0.50;99.90
15133;DHT22;7667;51.232;17.110;2022-11-18T05:39:26;-0.50;99.90
15133;DHT22;7667;51.232;17.110;2022-11-18T05:41:53;-0.50;99.90
15133;DHT22;7667;51.232;17.110;2022-11-18T05:44:39;-0.50;99.90
15133;DHT22;7667;51.232;17.110;2022-11-18T05:47:07;-0.50;99.90
15133;DHT22;7667;51.232;17.110;2022-11-18T05:49:34;-0.50;99.90
15133;DHT22;7667;51.232;17.110;2022-11-18T05:52:02;-0.50;99.90
15133;DHT22;7667;51.232;17.110;2022-11-18T05:54:30;-0.50;99.90
15133;DHT22;7667;51.232;17.110;2022-11-18T05:56:58;-0.50;99.90
15133;DHT22;7667;51.232;17.110;2022-11-18T05:59:26;-0.60;99.90
15133;DHT22;7667;51.232;17.110;2022-11-18T06:01:58;-0.60;99.90
15133;DHT22;7667;51.232;17.110;2022-11-18T06:05:04;-0.60;99.90
15133;DHT22;7667;51.232;17.110;2022-11-18T06:07:45;-0.70;99.90
15133;DHT22;7667;51.232;17.110;2022-11-18T06:10:18;-0.70;99.90
15133;DHT22;7667;51.232;17.110;2022-11-18T06:12:51;-0.70;99.90
15133;DHT22;7667;51.232;17.110;2022-11-18T06:15:27;-0.70;99.90
15133;DHT22;7667;51.232;17.110;2022-11-18T06:18:08;-0.70;99.90
15133;DHT22;7667;51.232;17.110;2022-11-18T06:20:39;-0.70;99.90
15133;DHT22;7667;51.232;17.110;2022-11-18T06:23:07;-0.70;99.90
15133;DHT22;7667;51.232;17.110;2022-11-18T06:25:37;-0.70;99.90
15133;DHT22;7667;51.232;17.110;2022-11-18T06:28:08;-0.70;99.90
15133;DHT22;7667;51.232;17.110;2022-11-18T06:30:37;-0.70;99.90
15133;DHT22;7667;51.232;17.110;2022-11-18T06:33:05;-0.80;99.90
15133;DHT22;7667;51.232;17.110;2022-11-18T06:35:33;-0.80;99.90
15133;DHT22;7667;51.232;17.110;2022-11-18T06:38:00;-0.70;99.90
15133;DHT22;7667;51.232;17.110;2022-11-18T06:40:28;-0.70;99.90
15133;DHT22;7667;51.232;17.110;2022-11-18T06:43:07;-0.70;99.90
15133;DHT22;7667;51.232;17.110;2022-11-18T06:45:57;-0.70;99.90
15133;DHT22;7667;51.232;17.110;2022-11-18T06:48:44;-0.80;99.90
15133;DHT22;7667;51.232;17.110;2022-11-18T06:51:12;-0.80;99.90
15133;DHT22;7667;51.232;17.110;2022-11-18T06:53:39;-0.80;99.90
15133;DHT22;7667;51.232;17.110;2022-11-18T06:56:09;-0.80;99.90
15133;DHT22;7667;51.232;17.110;2022-11-18T06:58:40;-0.80;99.90
15133;DHT22;7667;51.232;17.110;2022-11-18T07:01:19;-0.80;99.90
15133;DHT22;7667;51.232;17.110;2022-11-18T07:03:50;-0.80;99.90
15133;DHT22;7667;51.232;17.110;2022-11-18T07:06:20;-0.80;99.90
15133;DHT22;7667;51.232;17.110;2022-11-18T07:08:50;-0.80;99.90
15133;DHT22;7667;51.232;17.110;2022-11-18T07:11:23;-0.80;99.90
15133;DHT22;7667;51.232;17.110;2022-11-18T07:13:51;-0.80;99.90
15133;DHT22;7667;51.232;17.110;2022-11-18T07:16:21;-0.80;99.90
15133;DHT22;7667;51.232;17.110;2022-11-18T07:18:50;-0.70;99.90
15133;DHT22;7667;51.232;17.110;2022-11-18T07:21:21;-0.70;99.90
15133;DHT22;7667;51.232;17.110;2022-11-18T07:23:50;-0.70;99.90
15133;DHT22;7667;51.232;17.110;2022-11-18T07:26:18;-0.70;99.90
15133;DHT22;7667;51.232;17.110;2022-11-18T07:28:45;-0.70;99.90
15133;DHT22;7667;51.232;17.110;2022-11-18T07:31:15;-0.80;99.90
15133;DHT22;7667;51.232;17.110;2022-11-18T07:33:45;-0.80;99.90
15133;DHT22;7667;51.232;17.110;2022-11-18T07:36:15;-0.70;99.90
15133;DHT22;7667;51.232;17.110;2022-11-18T07:38:44;-0.80;99.90
15133;DHT22;7667;51.232;17.110;2022-11-18T07:41:23;-0.80;99.90
15133;DHT22;7667;51.232;17.110;2022-11-18T07:43:57;-0.80;99.90
15133;DHT22;7667;51.232;17.110;2022-11-18T07:46:36;-0.80;99.90
15133;DHT22;7667;51.232;17.110;2022-11-18T07:49:06;-0.90;99.90
15133;DHT22;7667;51.232;17.110;2022-11-18T07:51:37;-1.00;99.90
15133;DHT22;7667;51.232;17.110;2022-11-18T07:54:10;-1.00;99.90
15133;DHT22;7667;51.232;17.110;2022-11-18T07:56:39;-1.00;99.90
15133;DHT22;7667;51.232;17.110;2022-11-18T07:59:07;-1.00;99.90
15133;DHT22;7667;51.232;17.110;2022-11-18T08:01:35;-1.00;99.90
15133;DHT22;7667;51.232;17.110;2022-11-18T08:04:08;-1.00;99.90
15133;DHT22;7667;51.232;17.110;2022-11-18T08:06:37;-0.90;99.90
15133;DHT22;7667;51.232;17.110;2022-11-18T08:09:06;-0.80;99.90
15133;DHT22;7667;51.232;17.110;2022-11-18T08:11:35;-0.90;99.90
15133;DHT22;7667;51.232;17.110;2022-11-18T08:14:02;-0.90;99.90
15133;DHT22;7667;51.232;17.110;2022-11-18T08:16:30;-0.90;99.90
15133;DHT22;7667;51.232;17.110;2022-11-18T08:18:58;-0.90;99.90
15133;DHT22;7667;51.232;17.110;2022-11-18T08:21:26;-0.90;99.90
15133;DHT22;7667;51.232;17.110;2022-11-18T08:23:55;-0.90;99.90
15133;DHT22;7667;51.232;17.110;2022-11-18T08:26:24;-0.90;99.90
15133;DHT22;7667;51.232;17.110;2022-11-18T08:28:53;-0.80;99.90
15133;DHT22;7667;51.232;17.110;2022-11-18T08:31:22;-0.80;99.90
15133;DHT22;7667;51.232;17.110;2022-11-18T08:33:56;-0.80;99.90
15133;DHT22;7667;51.232;17.110;2022-11-18T08:36:30;-0.70;99.90
15133;DHT22;7667;51.232;17.110;2022-11-18T08:39:00;-0.70;99.90
15133;DHT22;7667;51.232;17.110;2022-11-18T08:41:40;-0.60;99.90
15133;DHT22;7667;51.232;17.110;2022-11-18T08:44:12;-0.70;99.90
15133;DHT22;7667;51.232;17.110;2022-11-18T08:46:42;-0.70;99.90
15133;DHT22;7667;51.232;17.110;2022-11-18T08:49:13;-0.70;99.90
15133;DHT22;7667;51.232;17.110;2022-11-18T08:51:41;-0.70;99.90
15133;DHT22;7667;51.232;17.110;2022-11-18T08:54:09;-0.60;99.90
15133;DHT22;7667;51.232;17.110;2022-11-18T08:56:36;-0.60;99.90
15133;DHT22;7667;51.232;17.110;2022-11-18T08:59:04;-0.70;99.90
15133;DHT22;7667;51.232;17.110;2022-11-18T09:01:31;-0.70;99.90
15133;DHT22;7667;51.232;17.110;2022-11-18T09:03:59;-0.70;99.90
15133;DHT22;7667;51.232;17.110;2022-11-18T09:06:26;-0.60;99.90
15133;DHT22;7667;51.232;17.110;2022-11-18T09:08:54;-0.60;99.90
15133;DHT22;7667;51.232;17.110;2022-11-18T09:11:23;-0.60;99.90
15133;DHT22;7667;51.232;17.110;2022-11-18T09:13:56;-0.70;99.90
15133;DHT22;7667;51.232;17.110;2022-11-18T09:16:44;-0.90;99.90
15133;DHT22;7667;51.232;17.110;2022-11-18T09:19:14;-0.90;99.90
15133;DHT22;7667;51.232;17.110;2022-11-18T09:22:03;-0.90;99.90
15133;DHT22;7667;51.232;17.110;2022-11-18T09:24:31;-1.00;99.90
15133;DHT22;7667;51.232;17.110;2022-11-18T09:27:02;-1.00;99.90
15133;DHT22;7667;51.232;17.110;2022-11-18T09:29:32;-1.00;99.90
15133;DHT22;7667;51.232;17.110;2022-11-18T09:32:00;-1.00;99.90
15133;DHT22;7667;51.232;17.110;2022-11-18T09:34:28;-1.00;99.90
15133;DHT22;7667;51.232;17.110;2022-11-18T09:36:56;-1.00;99.90
15133;DHT22;7667;51.232;17.110;2022-11-18T09:39:24;-1.00;99.90
15133;DHT22;7667;51.232;17.110;2022-11-18T09:47:27;-0.80;99.90
15133;DHT22;7667;51.232;17.110;2022-11-18T09:50:05;-0.70;99.90
15133;DHT22;7667;51.232;17.110;2022-11-18T09:55:47;-0.80;99.90
15133;DHT22;7667;51.232;17.110;2022-11-18T09:58:21;-0.80;99.90
15133;DHT22;7667;51.232;17.110;2022-11-18T10:01:00;-0.80;99.90
15133;DHT22;7667;51.232;17.110;2022-11-18T10:03:30;-0.70;99.90
15133;DHT22;7667;51.232;17.110;2022-11-18T10:21:31;-0.70;99.90
15133;DHT22;7667;51.232;17.110;2022-11-18T10:24:26;-0.50;99.90
15133;DHT22;7667;51.232;17.110;2022-11-18T10:26:58;-0.50;99.90
15133;DHT22;7667;51.232;17.110;2022-11-18T10:29:26;-0.40;99.90
15133;DHT22;7667;51.232;17.110;2022-11-18T10:32:08;-0.40;99.90
15133;DHT22;7667;51.232;17.110;2022-11-18T10:35:20;-0.40;99.90
15133;DHT22;7667;51.232;17.110;2022-11-18T10:37:59;-0.40;99.90
15133;DHT22;7667;51.232;17.110;2022-11-18T10:40:37;-0.50;99.90
15133;DHT22;7667;51.232;17.110;2022-11-18T10:43:10;-0.60;99.90
15133;DHT22;7667;51.232;17.110;2022-11-18T10:45:39;-0.60;99.90
15133;DHT22;7667;51.232;17.110;2022-11-18T10:50:50;-0.50;99.90
15133;DHT22;7667;51.232;17.110;2022-11-18T10:53:35;-0.50;99.90
15133;DHT22;7667;51.232;17.110;2022-11-18T10:56:21;-0.60;99.90
15133;DHT22;7667;51.232;17.110;2022-11-18T10:58:49;-0.60;99.90
15133;DHT22;7667;51.232;17.110;2022-11-18T11:04:01;-0.60;99.90
15133;DHT22;7667;51.232;17.110;2022-11-18T11:06:34;-0.70;99.90
15133;DHT22;7667;51.232;17.110;2022-11-18T11:11:54;-0.70;99.90
15133;DHT22;7667;51.232;17.110;2022-11-18T11:20:36;-0.80;99.90
15133;DHT22;7667;51.232;17.110;2022-11-18T11:23:09;-0.90;99.90
15133;DHT22;7667;51.232;17.110;2022-11-18T11:28:52;-0.90;99.90
15133;DHT22;7667;51.232;17.110;2022-11-18T11:40:39;-0.70;99.90
15133;DHT22;7667;51.232;17.110;2022-11-18T11:43:26;-0.70;99.90
15133;DHT22;7667;51.232;17.110;2022-11-18T11:49:24;-0.80;99.90
15133;DHT22;7667;51.232;17.110;2022-11-18T11:52:03;-0.80;99.90
15133;DHT22;7667;51.232;17.110;2022-11-18T11:58:03;-0.70;99.90
15133;DHT22;7667;51.232;17.110;2022-11-18T12:01:43;-0.80;99.90
15133;DHT22;7667;51.232;17.110;2022-11-18T12:06:57;-0.80;99.90
15133;DHT22;7667;51.232;17.110;2022-11-18T12:12:17;-0.90;99.90
15133;DHT22;7667;51.232;17.110;2022-11-18T12:18:07;-0.90;99.90
15133;DHT22;7667;51.232;17.110;2022-11-18T12:20:49;-0.90;99.90
15133;DHT22;7667;51.232;17.110;2022-11-18T12:23:25;-1.00;99.90
15133;DHT22;7667;51.232;17.110;2022-11-18T12:26:05;-1.00;99.90
15133;DHT22;7667;51.232;17.110;2022-11-18T12:28:42;-1.20;99.90
15133;DHT22;7667;51.232;17.110;2022-11-18T12:33:56;-1.30;99.90
15133;DHT22;7667;51.232;17.110;2022-11-18T12:36:28;-1.20;99.90
15133;DHT22;7667;51.232;17.110;2022-11-18T12:41:54;-1.30;99.90
15133;DHT22;7667;51.232;17.110;2022-11-18T12:44:41;-1.30;99.90
15133;DHT22;7667;51.232;17.110;2022-11-18T12:47:11;-1.30;99.90
15133;DHT22;7667;51.232;17.110;2022-11-18T12:54:58;-1.30;99.90
15133;DHT22;7667;51.232;17.110;2022-11-18T12:57:32;-1.20;99.90
15133;DHT22;7667;51.232;17.110;2022-11-18T13:02:53;-1.40;99.90
15133;DHT22;7667;51.232;17.110;2022-11-18T13:05:32;-1.30;99.90
15133;DHT22;7667;51.232;17.110;2022-11-18T13:08:04;-1.40;99.90
15133;DHT22;7667;51.232;17.110;2022-11-18T13:10:52;-1.40;99.90
15133;DHT22;7667;51.232;17.110;2022-11-18T13:13:41;-1.50;99.90
15133;DHT22;7667;51.232;17.110;2022-11-18T13:16:27;-1.50;99.90
15133;DHT22;7667;51.232;17.110;2022-11-18T13:19:23;-1.50;99.90
15133;DHT22;7667;51.232;17.110;2022-11-18T13:21:56;-1.50;99.90
15133;DHT22;7667;51.232;17.110;2022-11-18T13:24:51;-1.40;99.90
15133;DHT22;7667;51.232;17.110;2022-11-18T13:27:44;-1.40;99.90
15133;DHT22;7667;51.232;17.110;2022-11-18T13:30:16;-1.30;99.90
15133;DHT22;7667;51.232;17.110;2022-11-18T13:32:46;-1.20;99.90
15133;DHT22;7667;51.232;17.110;2022-11-18T13:35:23;-1.20;99.90
15133;DHT22;7667;51.232;17.110;2022-11-18T13:37:59;-1.20;99.90
15133;DHT22;7667;51.232;17.110;2022-11-18T13:40:30;-1.20;99.90
15133;DHT22;7667;51.232;17.110;2022-11-18T13:43:08;-1.20;99.90
15133;DHT22;7667;51.232;17.110;2022-11-18T13:45:37;-1.20;99.90
15133;DHT22;7667;51.232;17.110;2022-11-18T13:48:11;-1.20;99.90
15133;DHT22;7667;51.232;17.110;2022-11-18T13:50:46;-1.30;99.90
15133;DHT22;7667;51.232;17.110;2022-11-18T13:56:06;-1.50;99.90
15133;DHT22;7667;51.232;17.110;2022-11-18T14:01:36;-1.70;99.90
15133;DHT22;7667;51.232;17.110;2022-11-18T14:04:19;-1.80;99.90
15133;DHT22;7667;51.232;17.110;2022-11-18T14:06:49;-1.90;99.90
15133;DHT22;7667;51.232;17.110;2022-11-18T14:09:25;-1.80;99.90
15133;DHT22;7667;51.232;17.110;2022-11-18T14:12:22;-1.80;99.90
15133;DHT22;7667;51.232;17.110;2022-11-18T14:15:33;-1.70;99.90
15133;DHT22;7667;51.232;17.110;2022-11-18T14:18:44;-1.60;99.90
15133;DHT22;7667;51.232;17.110;2022-11-18T14:21:13;-1.50;99.90
15133;DHT22;7667;51.232;17.110;2022-11-18T14:23:56;-1.50;99.90
15133;DHT22;7667;51.232;17.110;2022-11-18T14:26:35;-1.30;99.90
15133;DHT22;7667;51.232;17.110;2022-11-18T14:29:16;-1.30;99.90
15133;DHT22;7667;51.232;17.110;2022-11-18T14:32:12;-1.20;99.90
15133;DHT22;7667;51.232;17.110;2022-11-18T14:34:40;-1.20;99.90
15133;DHT22;7667;51.232;17.110;2022-11-18T14:37:12;-1.20;99.90
15133;DHT22;7667;51.232;17.110;2022-11-18T14:39:40;-1.20;99.90
15133;DHT22;7667;51.232;17.110;2022-11-18T14:42:11;-1.30;99.90
15133;DHT22;7667;51.232;17.110;2022-11-18T14:44:39;-1.40;99.90
15133;DHT22;7667;51.232;17.110;2022-11-18T14:49:54;-1.70;99.90
15133;DHT22;7667;51.232;17.110;2022-11-18T14:52:22;-1.90;99.90
15133;DHT22;7667;51.232;17.110;2022-11-18T14:54:49;-2.10;99.90
15133;DHT22;7667;51.232;17.110;2022-11-18T14:57:18;-2.20;99.90
15133;DHT22;7667;51.232;17.110;2022-11-18T14:59:45;-2.40;99.90
15133;DHT22;7667;51.232;17.110;2022-11-18T15:02:17;-2.40;99.90
15133;DHT22;7667;51.232;17.110;2022-11-18T15:04:44;-2.30;99.90
15133;DHT22;7667;51.232;17.110;2022-11-18T15:07:13;-2.20;99.90
15133;DHT22;7667;51.232;17.110;2022-11-18T15:09:49;-2.20;99.90
15133;DHT22;7667;51.232;17.110;2022-11-18T15:12:16;-2.00;99.90
15133;DHT22;7667;51.232;17.110;2022-11-18T15:14:44;-1.90;99.90
15133;DHT22;7667;51.232;17.110;2022-11-18T15:17:12;-1.70;99.90
15133;DHT22;7667;51.232;17.110;2022-11-18T15:19:40;-1.60;99.90
15133;DHT22;7667;51.232;17.110;2022-11-18T15:22:07;-1.40;99.90
15133;DHT22;7667;51.232;17.110;2022-11-18T15:24:35;-1.30;99.90
15133;DHT22;7667;51.232;17.110;2022-11-18T15:27:03;-1.20;99.90
15133;DHT22;7667;51.232;17.110;2022-11-18T15:29:31;-1.30;99.90
15133;DHT22;7667;51.232;17.110;2022-11-18T15:31:59;-1.30;99.90
15133;DHT22;7667;51.232;17.110;2022-11-18T15:34:26;-1.20;99.90
15133;DHT22;7667;51.232;17.110;2022-11-18T15:36:54;-1.30;99.90
15133;DHT22;7667;51.232;17.110;2022-11-18T15:39:21;-1.30;99.90
15133;DHT22;7667;51.232;17.110;2022-11-18T15:41:48;-1.40;99.90
15133;DHT22;7667;51.232;17.110;2022-11-18T15:44:16;-1.30;99.90
15133;DHT22;7667;51.232;17.110;2022-11-18T15:46:44;-1.30;99.90
15133;DHT22;7667;51.232;17.110;2022-11-18T15:49:14;-1.20;99.90
15133;DHT22;7667;51.232;17.110;2022-11-18T15:51:43;-1.20;99.90
15133;DHT22;7667;51.232;17.110;2022-11-18T15:54:10;-1.20;99.90
15133;DHT22;7667;51.232;17.110;2022-11-18T15:56:39;-1.10;99.90
15133;DHT22;7667;51.232;17.110;2022-11-18T15:59:15;-1.20;99.90
15133;DHT22;7667;51.232;17.110;2022-11-18T16:01:47;-1.10;99.90
15133;DHT22;7667;51.232;17.110;2022-11-18T16:04:16;-1.10;99.90
15133;DHT22;7667;51.232;17.110;2022-11-18T16:06:45;-1.10;99.90
15133;DHT22;7667;51.232;17.110;2022-11-18T16:09:14;-1.20;99.90
15133;DHT22;7667;51.232;17.110;2022-11-18T16:11:43;-1.20;99.90
15133;DHT22;7667;51.232;17.110;2022-11-18T16:14:29;-1.20;99.90
15133;DHT22;7667;51.232;17.110;2022-11-18T16:16:57;-1.10;99.90
15133;DHT22;7667;51.232;17.110;2022-11-18T16:19:25;-1.10;99.90
15133;DHT22;7667;51.232;17.110;2022-11-18T16:21:55;-1.10;99.90
15133;DHT22;7667;51.232;17.110;2022-11-18T16:24:25;-1.10;99.90
15133;DHT22;7667;51.232;17.110;2022-11-18T16:26:55;-1.00;99.90
15133;DHT22;7667;51.232;17.110;2022-11-18T16:29:23;-1.10;99.90
15133;DHT22;7667;51.232;17.110;2022-11-18T16:31:51;-1.10;99.90
15133;DHT22;7667;51.232;17.110;2022-11-18T16:34:23;-1.10;99.90
15133;DHT22;7667;51.232;17.110;2022-11-18T16:36:55;-1.10;99.90
15133;DHT22;7667;51.232;17.110;2022-11-18T16:39:26;-1.10;99.90
15133;DHT22;7667;51.232;17.110;2022-11-18T16:41:59;-1.10;99.90
15133;DHT22;7667;51.232;17.110;2022-11-18T16:44:35;-1.20;99.90
15133;DHT22;7667;51.232;17.110;2022-11-18T16:47:04;-1.20;99.90
15133;DHT22;7667;51.232;17.110;2022-11-18T16:49:40;-1.20;99.90
15133;DHT22;7667;51.232;17.110;2022-11-18T16:52:09;-1.20;99.90
15133;DHT22;7667;51.232;17.110;2022-11-18T16:54:36;-1.10;99.90
15133;DHT22;7667;51.232;17.110;2022-11-18T16:57:10;-1.10;99.90
15133;DHT22;7667;51.232;17.110;2022-11-18T16:59:38;-1.10;99.90
15133;DHT22;7667;51.232;17.110;2022-11-18T17:02:06;-1.10;99.90
15133;DHT22;7667;51.232;17.110;2022-11-18T17:04:36;-1.10;99.90
15133;DHT22;7667;51.232;17.110;2022-11-18T17:07:04;-1.10;99.90
15133;DHT22;7667;51.232;17.110;2022-11-18T17:09:32;-1.10;99.90
15133;DHT22;7667;51.232;17.110;2022-11-18T17:11:59;-1.10;99.90
15133;DHT22;7667;51.232;17.110;2022-11-18T17:14:29;-1.00;99.90
15133;DHT22;7667;51.232;17.110;2022-11-18T17:16:57;-1.10;99.90
15133;DHT22;7667;51.232;17.110;2022-11-18T17:19:27;-1.10;99.90
15133;DHT22;7667;51.232;17.110;2022-11-18T17:21:54;-1.10;99.90
15133;DHT22;7667;51.232;17.110;2022-11-18T17:24:22;-1.00;99.90
15133;DHT22;7667;51.232;17.110;2022-11-18T17:26:51;-1.00;99.90
15133;DHT22;7667;51.232;17.110;2022-11-18T17:29:19;-1.10;99.90
15133;DHT22;7667;51.232;17.110;2022-11-18T17:31:47;-1.00;99.90
15133;DHT22;7667;51.232;17.110;2022-11-18T17:34:15;-1.10;99.90
15133;DHT22;7667;51.232;17.110;2022-11-18T17:36:43;-1.10;99.90
15133;DHT22;7667;51.232;17.110;2022-11-18T17:39:11;-1.20;99.90
15133;DHT22;7667;51.232;17.110;2022-11-18T17:41:39;-1.20;99.90
15133;DHT22;7667;51.232;17.110;2022-11-18T17:44:26;-1.20;99.90
15133;DHT22;7667;51.232;17.110;2022-11-18T17:46:54;-1.30;99.90
15133;DHT22;7667;51.232;17.110;2022-11-18T17:49:22;-1.40;99.90
15133;DHT22;7667;51.232;17.110;2022-11-18T17:51:50;-1.50;99.90
15133;DHT22;7667;51.232;17.110;2022-11-18T17:54:18;-1.50;99.90
15133;DHT22;7667;51.232;17.110;2022-11-18T17:56:47;-1.50;99.90
15133;DHT22;7667;51.232;17.110;2022-11-18T17:59:16;-1.50;99.90
15133;DHT22;7667;51.232;17.110;2022-11-18T18:01:44;-1.50;99.90